JTA9 RJBB-ROAH
Flight info
| Callsign | JTA9 |
|---|---|
| Flight time | N/A |
| Altitude | 38000 |
| Route | OBLUR Y236 MULAB Y75 ONC Y525 IHEYA |
| Aircraft | B738/M-SDE2E3FGHIRWXY/LB1 |
Departure
| Time | N/A |
|---|---|
| Airport | Kansai International Airport (RJBB) |
Arrival
| Time | 2026-05-08 14:17 |
|---|---|
| Airport | Naha International Airport (ROAH) |
| Time | Latitude | Longitude | Altitude | Speed | Heading |
|---|---|---|---|---|---|
| 2026-05-08 13:40 | 26.37546 | 127.91316 | 10759 ft | 281 kts | 207° |
| 2026-05-08 13:40 | 26.35772 | 127.90409 | 10422 ft | 280 kts | 208° |
| 2026-05-08 13:40 | 26.33999 | 127.89479 | 9994 ft | 284 kts | 207° |
| 2026-05-08 13:40 | 26.32213 | 127.88543 | 9594 ft | 285 kts | 207° |
| 2026-05-08 13:41 | 26.30420 | 127.87611 | 9221 ft | 285 kts | 207° |
| 2026-05-08 13:41 | 26.28624 | 127.86683 | 8875 ft | 284 kts | 207° |
| 2026-05-08 13:41 | 26.26830 | 127.85760 | 8493 ft | 284 kts | 206° |
| 2026-05-08 13:41 | 26.25037 | 127.84841 | 8145 ft | 283 kts | 206° |
| 2026-05-08 13:42 | 26.23247 | 127.83925 | 7797 ft | 282 kts | 206° |
| 2026-05-08 13:42 | 26.21467 | 127.83015 | 7433 ft | 281 kts | 206° |
| 2026-05-08 13:42 | 26.19685 | 127.82107 | 7087 ft | 281 kts | 206° |
| 2026-05-08 13:42 | 26.17907 | 127.81200 | 6722 ft | 281 kts | 206° |
| 2026-05-08 13:43 | 26.16132 | 127.80294 | 6351 ft | 282 kts | 205° |
| 2026-05-08 13:43 | 26.14351 | 127.79386 | 5993 ft | 281 kts | 204° |
| 2026-05-08 13:43 | 26.12575 | 127.78481 | 5631 ft | 280 kts | 204° |
| 2026-05-08 13:43 | 26.10802 | 127.77579 | 5243 ft | 280 kts | 204° |
| 2026-05-08 13:44 | 26.09037 | 127.76680 | 4895 ft | 279 kts | 203° |
| 2026-05-08 13:44 | 26.07268 | 127.75780 | 4528 ft | 279 kts | 202° |
| 2026-05-08 13:44 | 26.05500 | 127.74880 | 4160 ft | 279 kts | 202° |
| 2026-05-08 13:44 | 26.03683 | 127.74271 | 3913 ft | 270 kts | 179° |
| 2026-05-08 13:45 | 26.01882 | 127.74586 | 3681 ft | 258 kts | 154° |
| 2026-05-08 13:45 | 26.00414 | 127.75633 | 3432 ft | 247 kts | 131° |
| 2026-05-08 13:45 | 25.99451 | 127.77147 | 3237 ft | 237 kts | 111° |
| 2026-05-08 13:45 | 25.99069 | 127.78876 | 3128 ft | 226 kts | 91° |
| 2026-05-08 13:46 | 25.99264 | 127.80564 | 3063 ft | 216 kts | 72° |
| 2026-05-08 13:46 | 25.99918 | 127.82024 | 3005 ft | 207 kts | 57° |
| 2026-05-08 13:46 | 26.00838 | 127.83200 | 2980 ft | 198 kts | 41° |
| 2026-05-08 13:46 | 26.01985 | 127.83969 | 2989 ft | 189 kts | 30° |
| 2026-05-08 13:47 | 26.03178 | 127.84580 | 2995 ft | 189 kts | 28° |
| 2026-05-08 13:47 | 26.04383 | 127.85178 | 2998 ft | 190 kts | 28° |
| 2026-05-08 13:47 | 26.05570 | 127.85764 | 3001 ft | 188 kts | 28° |
| 2026-05-08 13:47 | 26.06778 | 127.86362 | 3013 ft | 188 kts | 28° |
| 2026-05-08 13:48 | 26.07972 | 127.86954 | 3018 ft | 188 kts | 27° |
| 2026-05-08 13:48 | 26.09180 | 127.87443 | 2989 ft | 189 kts | 11° |
| 2026-05-08 13:48 | 26.10502 | 127.87436 | 3018 ft | 192 kts | 360° |
| 2026-05-08 13:48 | 26.11814 | 127.87099 | 3016 ft | 196 kts | 343° |
| 2026-05-08 13:49 | 26.12996 | 127.86327 | 3010 ft | 201 kts | 325° |
| 2026-05-08 13:49 | 26.13927 | 127.85141 | 3000 ft | 207 kts | 305° |
| 2026-05-08 13:49 | 26.14462 | 127.83645 | 3021 ft | 211 kts | 284° |
| 2026-05-08 13:49 | 26.14502 | 127.81997 | 3010 ft | 216 kts | 262° |
| 2026-05-08 13:50 | 26.14018 | 127.80414 | 3016 ft | 219 kts | 241° |
| 2026-05-08 13:50 | 26.13132 | 127.79030 | 3018 ft | 221 kts | 224° |
| 2026-05-08 13:50 | 26.11889 | 127.78051 | 3009 ft | 218 kts | 203° |
| 2026-05-08 13:50 | 26.10518 | 127.77336 | 2999 ft | 217 kts | 200° |
| 2026-05-08 13:51 | 26.09134 | 127.76656 | 3011 ft | 218 kts | 200° |
| 2026-05-08 13:51 | 26.07746 | 127.75977 | 3004 ft | 219 kts | 200° |
| 2026-05-08 13:51 | 26.06351 | 127.75292 | 2988 ft | 219 kts | 200° |
| 2026-05-08 13:51 | 26.04956 | 127.74615 | 2984 ft | 218 kts | 195° |
| 2026-05-08 13:52 | 26.03511 | 127.74505 | 2990 ft | 203 kts | 158° |
| 2026-05-08 13:52 | 26.02367 | 127.75282 | 3001 ft | 190 kts | 126° |
| 2026-05-08 13:52 | 26.01760 | 127.76533 | 3004 ft | 183 kts | 99° |
| 2026-05-08 13:52 | 26.01782 | 127.77917 | 2995 ft | 179 kts | 71° |
| 2026-05-08 13:53 | 26.02376 | 127.79110 | 2991 ft | 178 kts | 49° |
| 2026-05-08 13:53 | 26.03389 | 127.79901 | 2995 ft | 181 kts | 28° |
| 2026-05-08 13:53 | 26.04541 | 127.80473 | 2998 ft | 181 kts | 28° |
| 2026-05-08 13:53 | 26.05694 | 127.81052 | 2997 ft | 182 kts | 27° |
| 2026-05-08 13:54 | 26.06850 | 127.81629 | 3007 ft | 183 kts | 27° |
| 2026-05-08 13:54 | 26.08016 | 127.82209 | 2991 ft | 184 kts | 27° |
| 2026-05-08 13:54 | 26.09233 | 127.82671 | 2992 ft | 190 kts | 7° |
| 2026-05-08 13:54 | 26.10536 | 127.82380 | 3011 ft | 198 kts | 338° |
| 2026-05-08 13:55 | 26.11574 | 127.81350 | 3016 ft | 208 kts | 306° |
| 2026-05-08 13:55 | 26.11977 | 127.79788 | 2998 ft | 216 kts | 269° |
| 2026-05-08 13:55 | 26.10309 | 127.77210 | 3024 ft | 217 kts | 203° |
| 2026-05-08 13:56 | 26.08923 | 127.76507 | 3009 ft | 219 kts | 200° |
| 2026-05-08 13:56 | 26.07521 | 127.75834 | 3007 ft | 220 kts | 200° |
| 2026-05-08 13:56 | 26.06119 | 127.75155 | 2986 ft | 218 kts | 200° |
| 2026-05-08 13:56 | 26.04730 | 127.74520 | 2973 ft | 212 kts | 188° |
| 2026-05-08 13:57 | 26.03340 | 127.74590 | 2995 ft | 195 kts | 152° |
| 2026-05-08 13:57 | 26.02249 | 127.75435 | 3001 ft | 191 kts | 123° |
| 2026-05-08 13:57 | 26.01696 | 127.76732 | 3003 ft | 186 kts | 95° |
| 2026-05-08 13:57 | 26.01798 | 127.78128 | 2995 ft | 180 kts | 68° |
| 2026-05-08 13:58 | 26.02464 | 127.79288 | 2992 ft | 180 kts | 45° |
| 2026-05-08 13:58 | 26.03522 | 127.80031 | 2999 ft | 182 kts | 27° |
| 2026-05-08 13:58 | 26.04683 | 127.80611 | 3005 ft | 185 kts | 28° |
| 2026-05-08 13:58 | 26.05862 | 127.81203 | 3005 ft | 187 kts | 27° |
| 2026-05-08 13:59 | 26.07052 | 127.81795 | 2991 ft | 187 kts | 27° |
| 2026-05-08 13:59 | 26.08242 | 127.82386 | 2989 ft | 187 kts | 27° |
| 2026-05-08 13:59 | 26.09500 | 127.82742 | 2995 ft | 192 kts | 0° |
| 2026-05-08 13:59 | 26.10787 | 127.82308 | 3003 ft | 199 kts | 332° |
| 2026-05-08 14:00 | 26.11729 | 127.81172 | 3016 ft | 207 kts | 300° |
| 2026-05-08 14:00 | 26.11996 | 127.79601 | 3004 ft | 217 kts | 264° |
| 2026-05-08 14:00 | 26.11409 | 127.78070 | 2981 ft | 219 kts | 224° |
| 2026-05-08 14:00 | 26.10172 | 127.77140 | 3021 ft | 216 kts | 202° |
| 2026-05-08 14:01 | 26.08790 | 127.76448 | 3009 ft | 218 kts | 200° |
| 2026-05-08 14:01 | 26.07396 | 127.75777 | 3005 ft | 218 kts | 200° |
| 2026-05-08 14:01 | 26.06005 | 127.75101 | 2992 ft | 218 kts | 200° |
| 2026-05-08 14:01 | 26.04601 | 127.74475 | 2974 ft | 215 kts | 187° |
| 2026-05-08 14:02 | 26.03198 | 127.74608 | 2997 ft | 197 kts | 149° |
| 2026-05-08 14:02 | 26.02169 | 127.75522 | 3005 ft | 187 kts | 120° |
| 2026-05-08 14:02 | 26.01681 | 127.76830 | 2994 ft | 183 kts | 93° |
| 2026-05-08 14:02 | 26.01825 | 127.78196 | 2999 ft | 178 kts | 66° |
| 2026-05-08 14:03 | 26.02504 | 127.79328 | 2989 ft | 179 kts | 44° |
| 2026-05-08 14:03 | 26.03568 | 127.80047 | 3003 ft | 181 kts | 27° |
| 2026-05-08 14:03 | 26.04727 | 127.80626 | 3006 ft | 184 kts | 28° |
| 2026-05-08 14:03 | 26.05904 | 127.81217 | 3006 ft | 186 kts | 27° |
| 2026-05-08 14:04 | 26.07086 | 127.81807 | 2989 ft | 187 kts | 27° |
| 2026-05-08 14:04 | 26.08275 | 127.82399 | 2990 ft | 187 kts | 27° |
| 2026-05-08 14:04 | 26.09539 | 127.82737 | 2997 ft | 191 kts | 360° |
| 2026-05-08 14:04 | 26.10813 | 127.82287 | 3000 ft | 198 kts | 332° |
| 2026-05-08 14:05 | 26.11743 | 127.81137 | 3013 ft | 207 kts | 299° |
| 2026-05-08 14:05 | 26.11986 | 127.79538 | 3002 ft | 218 kts | 263° |
| 2026-05-08 14:05 | 26.11367 | 127.78016 | 2992 ft | 221 kts | 223° |
| 2026-05-08 14:05 | 26.10081 | 127.77126 | 3021 ft | 219 kts | 200° |
| 2026-05-08 14:06 | 26.08673 | 127.76440 | 3006 ft | 222 kts | 200° |
| 2026-05-08 14:06 | 26.07285 | 127.75756 | 2997 ft | 220 kts | 200° |
| 2026-05-08 14:06 | 26.05891 | 127.75068 | 2991 ft | 218 kts | 200° |
| 2026-05-08 14:06 | 26.04474 | 127.74458 | 2969 ft | 212 kts | 184° |
| 2026-05-08 14:07 | 26.03117 | 127.74671 | 3002 ft | 195 kts | 145° |
| 2026-05-08 14:07 | 26.02131 | 127.75647 | 3002 ft | 189 kts | 117° |
| 2026-05-08 14:07 | 26.01724 | 127.76995 | 2994 ft | 183 kts | 88° |
| 2026-05-08 14:07 | 26.01968 | 127.78344 | 2990 ft | 178 kts | 62° |
| 2026-05-08 14:08 | 26.02732 | 127.79415 | 2987 ft | 179 kts | 39° |
| 2026-05-08 14:08 | 26.03837 | 127.80061 | 3007 ft | 181 kts | 28° |
| 2026-05-08 14:08 | 26.04988 | 127.80640 | 3003 ft | 182 kts | 28° |
| 2026-05-08 14:08 | 26.06148 | 127.81221 | 2995 ft | 183 kts | 27° |
| 2026-05-08 14:09 | 26.07313 | 127.81801 | 2991 ft | 184 kts | 27° |
| 2026-05-08 14:09 | 26.08490 | 127.82386 | 2999 ft | 185 kts | 26° |
| 2026-05-08 14:09 | 26.09770 | 127.82596 | 3011 ft | 192 kts | 354° |
| 2026-05-08 14:09 | 26.11000 | 127.81996 | 3014 ft | 199 kts | 325° |
| 2026-05-08 14:10 | 26.11801 | 127.80730 | 3002 ft | 207 kts | 292° |
| 2026-05-08 14:10 | 26.11853 | 127.79109 | 3007 ft | 219 kts | 255° |
| 2026-05-08 14:10 | 26.11045 | 127.77703 | 2993 ft | 217 kts | 213° |
| 2026-05-08 14:10 | 26.09743 | 127.76965 | 3005 ft | 206 kts | 200° |
| 2026-05-08 14:11 | 26.08456 | 127.76332 | 2984 ft | 199 kts | 200° |
| 2026-05-08 14:11 | 26.07191 | 127.75709 | 2997 ft | 198 kts | 200° |
| 2026-05-08 14:11 | 26.05946 | 127.75054 | 2994 ft | 201 kts | 211° |
| 2026-05-08 14:11 | 26.05131 | 127.73837 | 2994 ft | 198 kts | 258° |
| 2026-05-08 14:12 | 26.05004 | 127.72328 | 3008 ft | 198 kts | 271° |
| 2026-05-08 14:12 | 26.04950 | 127.70787 | 2995 ft | 201 kts | 271° |
| 2026-05-08 14:12 | 26.04894 | 127.69232 | 2942 ft | 201 kts | 271° |
| 2026-05-08 14:12 | 26.04837 | 127.67686 | 2838 ft | 200 kts | 271° |
| 2026-05-08 14:13 | 26.04807 | 127.66135 | 2544 ft | 200 kts | 281° |
| 2026-05-08 14:13 | 26.05337 | 127.64789 | 2228 ft | 185 kts | 321° |
| 2026-05-08 14:13 | 26.06412 | 127.64200 | 2056 ft | 165 kts | 352° |
| 2026-05-08 14:13 | 26.07469 | 127.63979 | 2029 ft | 144 kts | 357° |
| 2026-05-08 14:14 | 26.08433 | 127.63842 | 1877 ft | 136 kts | 360° |
| 2026-05-08 14:14 | 26.09383 | 127.63767 | 1709 ft | 138 kts | 1° |
| 2026-05-08 14:14 | 26.10342 | 127.63712 | 1518 ft | 138 kts | 2° |
| 2026-05-08 14:14 | 26.11285 | 127.63664 | 1345 ft | 137 kts | 2° |
| 2026-05-08 14:15 | 26.12237 | 127.63619 | 1161 ft | 137 kts | 2° |
| 2026-05-08 14:15 | 26.13172 | 127.63574 | 978 ft | 132 kts | 2° |
| 2026-05-08 14:15 | 26.14077 | 127.63531 | 811 ft | 131 kts | 1° |
| 2026-05-08 14:15 | 26.14991 | 127.63488 | 643 ft | 132 kts | 1° |
| 2026-05-08 14:16 | 26.15917 | 127.63448 | 431 ft | 134 kts | 359° |
| 2026-05-08 14:16 | 26.16850 | 127.63405 | 264 ft | 133 kts | 0° |
| 2026-05-08 14:16 | 26.17760 | 127.63363 | 83 ft | 129 kts | 359° |
| 2026-05-08 14:16 | 26.18613 | 127.63325 | 27 ft | 109 kts | 358° |
| 2026-05-08 14:17 | 26.19251 | 127.63296 | 27 ft | 66 kts | 1° |
| 2026-05-08 14:17 | 26.19553 | 127.63403 | 28 ft | 33 kts | 27° |
| 2026-05-08 14:17 | 26.19750 | 127.63460 | 28 ft | 28 kts | 357° |
| 2026-05-08 14:17 | 26.19938 | 127.63449 | 28 ft | 26 kts | 357° |
| 2026-05-08 14:18 | 26.20114 | 127.63443 | 28 ft | 24 kts | 357° |
| 2026-05-08 14:18 | 26.20274 | 127.63439 | 27 ft | 18 kts | 15° |
| 2026-05-08 14:18 | 26.20305 | 127.63537 | 27 ft | 14 kts | 93° |
| 2026-05-08 14:18 | 26.20307 | 127.63644 | 27 ft | 14 kts | 88° |
| 2026-05-08 14:19 | 26.20311 | 127.63746 | 27 ft | 13 kts | 87° |
| 2026-05-08 14:19 | 26.20315 | 127.63845 | 28 ft | 13 kts | 87° |
| 2026-05-08 14:19 | 26.20319 | 127.63942 | 28 ft | 12 kts | 87° |
| 2026-05-08 14:19 | 26.20323 | 127.64037 | 27 ft | 12 kts | 88° |
| 2026-05-08 14:20 | 26.20325 | 127.64130 | 27 ft | 12 kts | 88° |
| 2026-05-08 14:20 | 26.20328 | 127.64230 | 27 ft | 14 kts | 87° |
| 2026-05-08 14:20 | 26.20333 | 127.64340 | 27 ft | 15 kts | 87° |
| 2026-05-08 14:20 | 26.20339 | 127.64463 | 28 ft | 16 kts | 87° |
| 2026-05-08 14:21 | 26.20346 | 127.64597 | 27 ft | 18 kts | 86° |
| 2026-05-08 14:21 | 26.20350 | 127.64744 | 27 ft | 19 kts | 88° |
| 2026-05-08 14:21 | 26.20355 | 127.64889 | 27 ft | 19 kts | 88° |
| 2026-05-08 14:21 | 26.20391 | 127.64982 | 27 ft | 11 kts | 30° |
| 2026-05-08 14:22 | 26.20429 | 127.65005 | 27 ft | 0 kts | 28° |